sensor_id;sensor_type;location;lat;lon;timestamp;pressure;altitude;pressure_sealevel;temperature;humidity
61900;BME280;47853;55.890;37.664;2022-12-29T00:00:10;99005.63;;;0.65;94.44
61900;BME280;47853;55.890;37.664;2022-12-29T00:02:36;98995.94;;;0.90;95.41
61900;BME280;47853;55.890;37.664;2022-12-29T00:05:01;99006.34;;;0.67;95.74
61900;BME280;47853;55.890;37.664;2022-12-29T00:07:27;99016.06;;;0.65;96.84
61900;BME280;47853;55.890;37.664;2022-12-29T00:09:52;99016.94;;;0.77;97.30
61900;BME280;47853;55.890;37.664;2022-12-29T00:12:17;99013.44;;;0.30;98.33
61900;BME280;47853;55.890;37.664;2022-12-29T00:14:43;99017.06;;;0.51;99.36
61900;BME280;47853;55.890;37.664;2022-12-29T00:17:08;99008.66;;;0.23;99.31
61900;BME280;47853;55.890;37.664;2022-12-29T00:19:34;99007.50;;;0.63;99.24
61900;BME280;47853;55.890;37.664;2022-12-29T00:22:00;99010.63;;;0.20;98.79
61900;BME280;47853;55.890;37.664;2022-12-29T00:24:25;99001.63;;;-0.01;100.00
61900;BME280;47853;55.890;37.664;2022-12-29T00:27:17;99011.38;;;-0.28;100.00
61900;BME280;47853;55.890;37.664;2022-12-29T00:29:42;99015.00;;;-0.05;100.00
61900;BME280;47853;55.890;37.664;2022-12-29T00:32:09;99020.31;;;0.06;99.86
61900;BME280;47853;55.890;37.664;2022-12-29T00:34:35;99020.94;;;-0.03;98.95
61900;BME280;47853;55.890;37.664;2022-12-29T00:37:00;99026.75;;;-0.24;98.27
61900;BME280;47853;55.890;37.664;2022-12-29T00:39:25;99024.31;;;-0.14;96.85
61900;BME280;47853;55.890;37.664;2022-12-29T00:41:51;99023.41;;;-0.26;95.57
61900;BME280;47853;55.890;37.664;2022-12-29T00:44:16;99013.72;;;-0.37;94.36
61900;BME280;47853;55.890;37.664;2022-12-29T00:46:42;99015.81;;;-0.42;94.23
61900;BME280;47853;55.890;37.664;2022-12-29T00:49:11;99027.38;;;-0.33;93.69
61900;BME280;47853;55.890;37.664;2022-12-29T00:51:36;99023.41;;;-0.39;93.97
61900;BME280;47853;55.890;37.664;2022-12-29T00:54:02;99023.94;;;0.04;92.81
61900;BME280;47853;55.890;37.664;2022-12-29T00:56:27;99032.41;;;-0.43;91.69
61900;BME280;47853;55.890;37.664;2022-12-29T00:58:53;99027.19;;;-0.43;91.60
61900;BME280;47853;55.890;37.664;2022-12-29T01:01:18;99026.94;;;-0.14;90.85
61900;BME280;47853;55.890;37.664;2022-12-29T01:03:43;99037.44;;;-0.03;90.15
61900;BME280;47853;55.890;37.664;2022-12-29T01:06:10;99032.38;;;-0.17;89.64
61900;BME280;47853;55.890;37.664;2022-12-29T01:08:35;99030.41;;;0.11;89.85
61900;BME280;47853;55.890;37.664;2022-12-29T01:11:06;99012.47;;;-0.31;90.21
61900;BME280;47853;55.890;37.664;2022-12-29T01:13:32;99039.41;;;-0.43;91.29
61900;BME280;47853;55.890;37.664;2022-12-29T01:15:58;99036.88;;;-0.32;91.87
61900;BME280;47853;55.890;37.664;2022-12-29T01:18:24;99039.19;;;0.10;91.60
61900;BME280;47853;55.890;37.664;2022-12-29T01:20:50;99048.19;;;-0.07;90.90
61900;BME280;47853;55.890;37.664;2022-12-29T01:23:16;99043.41;;;-0.01;90.23
61900;BME280;47853;55.890;37.664;2022-12-29T01:25:41;99053.91;;;-0.39;89.97
61900;BME280;47853;55.890;37.664;2022-12-29T01:28:07;99047.44;;;0.04;90.31
61900;BME280;47853;55.890;37.664;2022-12-29T01:30:32;99045.47;;;0.07;88.30
61900;BME280;47853;55.890;37.664;2022-12-29T01:32:58;99041.38;;;-0.21;88.85
61900;BME280;47853;55.890;37.664;2022-12-29T01:35:23;99046.25;;;-0.17;88.81
61900;BME280;47853;55.890;37.664;2022-12-29T01:37:48;99035.94;;;-0.57;90.38
61900;BME280;47853;55.890;37.664;2022-12-29T01:40:14;99052.31;;;-0.16;91.02
61900;BME280;47853;55.890;37.664;2022-12-29T01:42:39;99048.34;;;-0.35;90.54
61900;BME280;47853;55.890;37.664;2022-12-29T01:45:15;99052.47;;;-0.43;90.27
61900;BME280;47853;55.890;37.664;2022-12-29T01:47:57;99049.63;;;-0.79;90.92
61900;BME280;47853;55.890;37.664;2022-12-29T01:50:32;99038.94;;;-0.24;91.48
61900;BME280;47853;55.890;37.664;2022-12-29T01:53:09;99046.38;;;-0.31;89.90
61900;BME280;47853;55.890;37.664;2022-12-29T01:55:43;99053.69;;;-0.36;89.95
61900;BME280;47853;55.890;37.664;2022-12-29T01:58:10;99048.25;;;-0.33;89.83
61900;BME280;47853;55.890;37.664;2022-12-29T02:00:37;99033.34;;;-0.57;89.56
61900;BME280;47853;55.890;37.664;2022-12-29T02:03:03;99046.38;;;-0.57;89.78
61900;BME280;47853;55.890;37.664;2022-12-29T02:05:36;99051.47;;;-0.17;88.55
61900;BME280;47853;55.890;37.664;2022-12-29T02:08:03;99046.16;;;-0.93;88.48
61900;BME280;47853;55.890;37.664;2022-12-29T02:10:31;99064.84;;;-0.99;90.70
61900;BME280;47853;55.890;37.664;2022-12-29T02:12:58;99040.09;;;-1.19;92.03
61900;BME280;47853;55.890;37.664;2022-12-29T02:26:33;99053.94;;;-1.32;96.27
61900;BME280;47853;55.890;37.664;2022-12-29T02:31:52;99065.13;;;-1.04;96.00
61900;BME280;47853;55.890;37.664;2022-12-29T02:34:36;99068.47;;;-1.02;96.04
61900;BME280;47853;55.890;37.664;2022-12-29T02:40:03;99086.53;;;-1.26;96.68
61900;BME280;47853;55.890;37.664;2022-12-29T02:42:38;99071.56;;;-1.50;96.52
61900;BME280;47853;55.890;37.664;2022-12-29T02:45:31;99086.78;;;-1.16;97.25
61900;BME280;47853;55.890;37.664;2022-12-29T02:50:38;99098.88;;;-1.15;96.39
61900;BME280;47853;55.890;37.664;2022-12-29T02:53:15;99090.94;;;-1.13;95.51
61900;BME280;47853;55.890;37.664;2022-12-29T02:55:49;99085.09;;;-0.77;94.96
61900;BME280;47853;55.890;37.664;2022-12-29T02:58:20;99098.47;;;-0.55;93.51
61900;BME280;47853;55.890;37.664;2022-12-29T03:04:29;99083.00;;;-0.71;91.79
61900;BME280;47853;55.890;37.664;2022-12-29T03:07:49;99095.63;;;-0.65;91.31
61900;BME280;47853;55.890;37.664;2022-12-29T03:13:28;99093.66;;;-0.75;93.36
61900;BME280;47853;55.890;37.664;2022-12-29T03:16:07;99098.66;;;-0.71;92.62
61900;BME280;47853;55.890;37.664;2022-12-29T03:21:19;99082.91;;;-0.57;91.99
61900;BME280;47853;55.890;37.664;2022-12-29T03:23:48;99095.53;;;-0.51;91.10
61900;BME280;47853;55.890;37.664;2022-12-29T03:26:16;99114.31;;;-0.46;90.88
61900;BME280;47853;55.890;37.664;2022-12-29T03:28:52;99094.72;;;-1.05;91.76
61900;BME280;47853;55.890;37.664;2022-12-29T03:31:19;99107.00;;;-1.47;93.95
61900;BME280;47853;55.890;37.664;2022-12-29T03:33:47;99114.19;;;-1.51;96.16
61900;BME280;47853;55.890;37.664;2022-12-29T03:36:20;99106.34;;;-1.93;96.87
61900;BME280;47853;55.890;37.664;2022-12-29T03:38:58;99115.34;;;-1.84;98.00
61900;BME280;47853;55.890;37.664;2022-12-29T03:41:30;99130.31;;;-1.87;98.95
61900;BME280;47853;55.890;37.664;2022-12-29T03:43:55;99121.78;;;-2.04;99.22
61900;BME280;47853;55.890;37.664;2022-12-29T03:46:21;99140.53;;;-1.84;99.95
61900;BME280;47853;55.890;37.664;2022-12-29T03:48:46;99116.56;;;-1.90;99.52
61900;BME280;47853;55.890;37.664;2022-12-29T03:51:14;99134.31;;;-2.11;99.72
61900;BME280;47853;55.890;37.664;2022-12-29T03:53:40;99140.66;;;-1.86;100.00
61900;BME280;47853;55.890;37.664;2022-12-29T03:56:05;99138.16;;;-1.46;99.50
61900;BME280;47853;55.890;37.664;2022-12-29T03:58:31;99148.34;;;-1.70;99.15
61900;BME280;47853;55.890;37.664;2022-12-29T04:00:56;99145.06;;;-1.44;98.50
61900;BME280;47853;55.890;37.664;2022-12-29T04:03:22;99145.97;;;-1.46;97.25
61900;BME280;47853;55.890;37.664;2022-12-29T04:05:47;99139.94;;;-1.46;97.61
61900;BME280;47853;55.890;37.664;2022-12-29T04:08:12;99153.75;;;-1.31;96.33
61900;BME280;47853;55.890;37.664;2022-12-29T04:10:38;99130.97;;;-1.84;96.86
61900;BME280;47853;55.890;37.664;2022-12-29T04:13:03;99143.63;;;-1.78;97.92
61900;BME280;47853;55.890;37.664;2022-12-29T04:15:28;99135.97;;;-1.66;97.41
61900;BME280;47853;55.890;37.664;2022-12-29T04:17:54;99148.44;;;-1.71;98.16
61900;BME280;47853;55.890;37.664;2022-12-29T04:20:19;99135.34;;;-1.70;98.08
61900;BME280;47853;55.890;37.664;2022-12-29T04:22:45;99140.16;;;-1.78;98.11
61900;BME280;47853;55.890;37.664;2022-12-29T04:25:10;99163.44;;;-1.75;98.44
61900;BME280;47853;55.890;37.664;2022-12-29T04:27:35;99155.75;;;-1.49;98.22
61900;BME280;47853;55.890;37.664;2022-12-29T04:30:01;99165.44;;;-1.24;97.31
61900;BME280;47853;55.890;37.664;2022-12-29T04:32:26;99143.63;;;-1.78;96.90
61900;BME280;47853;55.890;37.664;2022-12-29T04:34:52;99157.84;;;-1.83;97.66
61900;BME280;47853;55.890;37.664;2022-12-29T04:37:17;99151.13;;;-1.58;97.54
61900;BME280;47853;55.890;37.664;2022-12-29T04:39:42;99153.47;;;-1.68;97.51
61900;BME280;47853;55.890;37.664;2022-12-29T04:42:08;99148.91;;;-1.79;97.26
61900;BME280;47853;55.890;37.664;2022-12-29T04:44:33;99161.06;;;-1.65;97.91
61900;BME280;47853;55.890;37.664;2022-12-29T04:46:58;99168.19;;;-1.96;98.04
61900;BME280;47853;55.890;37.664;2022-12-29T04:49:24;99162.94;;;-1.67;98.63
61900;BME280;47853;55.890;37.664;2022-12-29T04:51:49;99167.31;;;-1.68;98.82
61900;BME280;47853;55.890;37.664;2022-12-29T04:54:14;99171.44;;;-2.07;98.99
61900;BME280;47853;55.890;37.664;2022-12-29T04:56:40;99173.47;;;-2.12;99.66
61900;BME280;47853;55.890;37.664;2022-12-29T04:59:05;99169.53;;;-2.34;100.00
61900;BME280;47853;55.890;37.664;2022-12-29T05:01:30;99151.38;;;-2.65;100.00
61900;BME280;47853;55.890;37.664;2022-12-29T05:03:56;99178.94;;;-2.02;100.00
61900;BME280;47853;55.890;37.664;2022-12-29T05:06:21;99165.44;;;-1.80;100.00
61900;BME280;47853;55.890;37.664;2022-12-29T05:08:47;99176.78;;;-1.81;100.00
61900;BME280;47853;55.890;37.664;2022-12-29T05:11:12;99161.09;;;-1.80;100.00
61900;BME280;47853;55.890;37.664;2022-12-29T05:13:37;99177.19;;;-2.02;100.00
61900;BME280;47853;55.890;37.664;2022-12-29T05:16:03;99159.88;;;-1.88;100.00
61900;BME280;47853;55.890;37.664;2022-12-29T05:18:28;99164.72;;;-1.82;99.39
61900;BME280;47853;55.890;37.664;2022-12-29T05:20:53;99179.78;;;-2.02;99.09
61900;BME280;47853;55.890;37.664;2022-12-29T05:23:19;99188.41;;;-1.58;98.76
61900;BME280;47853;55.890;37.664;2022-12-29T05:25:44;99178.38;;;-1.64;98.04
61900;BME280;47853;55.890;37.664;2022-12-29T05:28:13;99192.00;;;-1.32;96.93
61900;BME280;47853;55.890;37.664;2022-12-29T05:30:38;99183.47;;;-1.48;95.73
61900;BME280;47853;55.890;37.664;2022-12-29T05:33:04;99179.34;;;-1.38;95.33
61900;BME280;47853;55.890;37.664;2022-12-29T05:35:29;99193.78;;;-1.32;94.97
61900;BME280;47853;55.890;37.664;2022-12-29T05:37:55;99181.63;;;-1.61;94.58
61900;BME280;47853;55.890;37.664;2022-12-29T05:40:20;99189.97;;;-1.41;94.10
61900;BME280;47853;55.890;37.664;2022-12-29T05:42:45;99207.75;;;-1.06;94.23
61900;BME280;47853;55.890;37.664;2022-12-29T05:45:11;99205.53;;;-1.12;93.80
61900;BME280;47853;55.890;37.664;2022-12-29T05:47:36;99198.41;;;-0.95;92.32
61900;BME280;47853;55.890;37.664;2022-12-29T05:50:02;99201.75;;;-0.93;92.17
61900;BME280;47853;55.890;37.664;2022-12-29T05:52:27;99197.91;;;-0.88;91.42
61900;BME280;47853;55.890;37.664;2022-12-29T05:54:52;99197.19;;;-0.90;90.28
61900;BME280;47853;55.890;37.664;2022-12-29T05:57:18;99202.25;;;-1.01;90.86
61900;BME280;47853;55.890;37.664;2022-12-29T05:59:43;99209.13;;;-0.73;90.66
61900;BME280;47853;55.890;37.664;2022-12-29T06:02:09;99211.16;;;-1.18;90.96
61900;BME280;47853;55.890;37.664;2022-12-29T06:04:34;99195.59;;;-0.92;92.19
61900;BME280;47853;55.890;37.664;2022-12-29T06:07:00;99209.00;;;-1.26;91.37
61900;BME280;47853;55.890;37.664;2022-12-29T06:09:25;99214.56;;;-1.74;93.01
61900;BME280;47853;55.890;37.664;2022-12-29T06:11:50;99216.72;;;-2.26;95.06
61900;BME280;47853;55.890;37.664;2022-12-29T06:14:16;99224.38;;;-2.53;96.83
61900;BME280;47853;55.890;37.664;2022-12-29T06:16:41;99213.41;;;-2.58;98.79
61900;BME280;47853;55.890;37.664;2022-12-29T06:19:06;99215.94;;;-2.57;99.23
61900;BME280;47853;55.890;37.664;2022-12-29T06:21:32;99222.25;;;-2.61;99.69
61900;BME280;47853;55.890;37.664;2022-12-29T06:23:57;99217.63;;;-2.72;100.00
61900;BME280;47853;55.890;37.664;2022-12-29T06:26:22;99215.13;;;-2.73;100.00
61900;BME280;47853;55.890;37.664;2022-12-29T06:28:48;99215.09;;;-2.57;100.00
61900;BME280;47853;55.890;37.664;2022-12-29T06:31:13;99193.41;;;-2.88;100.00
61900;BME280;47853;55.890;37.664;2022-12-29T06:33:39;99210.13;;;-2.93;100.00
61900;BME280;47853;55.890;37.664;2022-12-29T06:36:04;99217.50;;;-2.85;100.00
61900;BME280;47853;55.890;37.664;2022-12-29T06:38:29;99236.16;;;-2.62;100.00
61900;BME280;47853;55.890;37.664;2022-12-29T06:40:55;99219.34;;;-2.56;100.00
61900;BME280;47853;55.890;37.664;2022-12-29T06:43:20;99224.44;;;-2.39;100.00
61900;BME280;47853;55.890;37.664;2022-12-29T06:45:46;99221.84;;;-2.39;100.00
61900;BME280;47853;55.890;37.664;2022-12-29T06:48:11;99223.72;;;-2.26;100.00
61900;BME280;47853;55.890;37.664;2022-12-29T06:50:37;99224.66;;;-2.13;99.79
61900;BME280;47853;55.890;37.664;2022-12-29T06:53:02;99225.34;;;-1.95;99.03
61900;BME280;47853;55.890;37.664;2022-12-29T06:55:28;99228.22;;;-1.85;97.62
61900;BME280;47853;55.890;37.664;2022-12-29T06:57:57;99212.31;;;-1.51;96.82
61900;BME280;47853;55.890;37.664;2022-12-29T07:00:24;99226.94;;;-1.78;95.38
61900;BME280;47853;55.890;37.664;2022-12-29T07:02:49;99210.72;;;-2.12;95.67
61900;BME280;47853;55.890;37.664;2022-12-29T07:05:15;99223.97;;;-1.86;95.64
61900;BME280;47853;55.890;37.664;2022-12-29T07:07:40;99225.34;;;-2.09;96.31
61900;BME280;47853;55.890;37.664;2022-12-29T07:10:06;99230.63;;;-2.11;96.52
61900;BME280;47853;55.890;37.664;2022-12-29T07:12:31;99209.66;;;-2.38;96.74
61900;BME280;47853;55.890;37.664;2022-12-29T07:14:56;99222.31;;;-2.63;97.39
61900;BME280;47853;55.890;37.664;2022-12-29T07:17:22;99216.41;;;-2.50;98.21
61900;BME280;47853;55.890;37.664;2022-12-29T07:19:47;99245.47;;;-2.27;98.27
61900;BME280;47853;55.890;37.664;2022-12-29T07:22:12;99227.59;;;-2.34;97.86
61900;BME280;47853;55.890;37.664;2022-12-29T07:24:38;99231.53;;;-2.57;98.79
61900;BME280;47853;55.890;37.664;2022-12-29T07:27:04;99239.94;;;-2.37;98.71
61900;BME280;47853;55.890;37.664;2022-12-29T07:29:29;99231.13;;;-2.65;99.04
61900;BME280;47853;55.890;37.664;2022-12-29T07:31:54;99225.81;;;-2.48;99.22
61900;BME280;47853;55.890;37.664;2022-12-29T07:34:20;99247.38;;;-2.31;97.94
61900;BME280;47853;55.890;37.664;2022-12-29T07:36:45;99240.91;;;-2.24;97.96
61900;BME280;47853;55.890;37.664;2022-12-29T07:39:10;99242.19;;;-2.31;97.14
61900;BME280;47853;55.890;37.664;2022-12-29T07:41:36;99231.22;;;-2.36;97.69
61900;BME280;47853;55.890;37.664;2022-12-29T07:44:01;99246.22;;;-2.11;97.42
61900;BME280;47853;55.890;37.664;2022-12-29T07:46:26;99241.31;;;-2.15;96.45
61900;BME280;47853;55.890;37.664;2022-12-29T07:48:52;99251.09;;;-2.35;96.14
61900;BME280;47853;55.890;37.664;2022-12-29T07:51:17;99242.91;;;-2.43;95.75
61900;BME280;47853;55.890;37.664;2022-12-29T07:53:43;99255.41;;;-2.50;96.42
61900;BME280;47853;55.890;37.664;2022-12-29T07:56:08;99252.59;;;-2.62;96.46
61900;BME280;47853;55.890;37.664;2022-12-29T07:58:33;99247.88;;;-2.24;96.44
61900;BME280;47853;55.890;37.664;2022-12-29T08:00:59;99253.97;;;-2.40;96.09
61900;BME280;47853;55.890;37.664;2022-12-29T08:03:24;99269.69;;;-2.57;95.50
61900;BME280;47853;55.890;37.664;2022-12-29T08:05:49;99270.75;;;-2.92;96.49
61900;BME280;47853;55.890;37.664;2022-12-29T08:08:15;99266.06;;;-2.85;97.67
61900;BME280;47853;55.890;37.664;2022-12-29T08:10:40;99263.22;;;-2.50;97.50
61900;BME280;47853;55.890;37.664;2022-12-29T08:13:06;99257.22;;;-2.36;97.12
61900;BME280;47853;55.890;37.664;2022-12-29T08:15:31;99267.41;;;-2.17;96.46
61900;BME280;47853;55.890;37.664;2022-12-29T08:17:57;99263.19;;;-1.89;95.07
61900;BME280;47853;55.890;37.664;2022-12-29T08:20:22;99254.66;;;-2.22;94.28
61900;BME280;47853;55.890;37.664;2022-12-29T08:22:47;99261.63;;;-2.22;94.70
61900;BME280;47853;55.890;37.664;2022-12-29T08:25:13;99266.84;;;-2.53;96.10
61900;BME280;47853;55.890;37.664;2022-12-29T08:27:38;99265.31;;;-1.96;95.83
61900;BME280;47853;55.890;37.664;2022-12-29T08:30:04;99259.72;;;-1.90;94.94
61900;BME280;47853;55.890;37.664;2022-12-29T08:32:30;99266.66;;;-1.74;94.66
61900;BME280;47853;55.890;37.664;2022-12-29T08:34:55;99266.59;;;-2.03;94.80
61900;BME280;47853;55.890;37.664;2022-12-29T08:37:20;99259.78;;;-2.20;94.61
61900;BME280;47853;55.890;37.664;2022-12-29T08:39:48;99270.78;;;-2.31;94.73
61900;BME280;47853;55.890;37.664;2022-12-29T08:42:13;99281.75;;;-2.56;96.28
61900;BME280;47853;55.890;37.664;2022-12-29T08:44:39;99273.56;;;-2.97;97.23
61900;BME280;47853;55.890;37.664;2022-12-29T08:47:04;99242.38;;;-2.65;98.17
61900;BME280;47853;55.890;37.664;2022-12-29T08:49:29;99270.06;;;-2.80;97.69
61900;BME280;47853;55.890;37.664;2022-12-29T08:51:55;99277.28;;;-3.01;98.63
61900;BME280;47853;55.890;37.664;2022-12-29T08:54:20;99265.28;;;-3.19;99.56
61900;BME280;47853;55.890;37.664;2022-12-29T08:56:46;99276.63;;;-3.04;100.00
61900;BME280;47853;55.890;37.664;2022-12-29T08:59:11;99276.84;;;-3.09;100.00
61900;BME280;47853;55.890;37.664;2022-12-29T09:01:36;99284.38;;;-2.56;100.00
61900;BME280;47853;55.890;37.664;2022-12-29T09:04:02;99267.19;;;-2.59;99.96
61900;BME280;47853;55.890;37.664;2022-12-29T09:06:27;99282.28;;;-2.66;98.86
61900;BME280;47853;55.890;37.664;2022-12-29T09:08:54;99249.59;;;-3.50;99.73
61900;BME280;47853;55.890;37.664;2022-12-29T09:11:22;99266.38;;;-3.24;100.00
61900;BME280;47853;55.890;37.664;2022-12-29T09:13:48;99289.16;;;-2.81;100.00
61900;BME280;47853;55.890;37.664;2022-12-29T09:16:14;99292.78;;;-2.83;100.00
61900;BME280;47853;55.890;37.664;2022-12-29T09:18:44;99283.22;;;-2.67;98.88
61900;BME280;47853;55.890;37.664;2022-12-29T09:21:13;99282.81;;;-2.75;99.18
61900;BME280;47853;55.890;37.664;2022-12-29T09:23:39;99285.22;;;-2.72;98.96
61900;BME280;47853;55.890;37.664;2022-12-29T09:26:04;99282.22;;;-2.34;98.45
61900;BME280;47853;55.890;37.664;2022-12-29T09:28:30;99268.66;;;-2.39;97.38
61900;BME280;47853;55.890;37.664;2022-12-29T09:30:57;99277.28;;;-2.85;97.62
61900;BME280;47853;55.890;37.664;2022-12-29T09:36:55;99182.81;;;-3.80;99.22
61900;BME280;47853;55.890;37.664;2022-12-29T10:02:31;99287.31;;;-2.01;96.96
61900;BME280;47853;55.890;37.664;2022-12-29T10:10:56;99288.22;;;-1.72;93.50
61900;BME280;47853;55.890;37.664;2022-12-29T10:16:16;99269.06;;;-2.16;93.06
61900;BME280;47853;55.890;37.664;2022-12-29T10:30:47;99254.16;;;-3.55;100.00
61900;BME280;47853;55.890;37.664;2022-12-29T10:34:03;99182.88;;;-3.82;100.00
61900;BME280;47853;55.890;37.664;2022-12-29T10:42:46;99186.28;;;-3.31;99.71
61900;BME280;47853;55.890;37.664;2022-12-29T10:45:16;99187.88;;;-3.29;99.04
61900;BME280;47853;55.890;37.664;2022-12-29T10:50:31;99240.44;;;-2.61;98.98
61900;BME280;47853;55.890;37.664;2022-12-29T10:53:04;99280.19;;;-2.28;98.00
61900;BME280;47853;55.890;37.664;2022-12-29T10:55:36;99283.06;;;-2.96;98.23
61900;BME280;47853;55.890;37.664;2022-12-29T10:58:31;99289.38;;;-2.37;97.60
61900;BME280;47853;55.890;37.664;2022-12-29T11:01:11;99205.88;;;-3.26;97.13
61900;BME280;47853;55.890;37.664;2022-12-29T11:03:54;99197.38;;;-2.81;97.07
61900;BME280;47853;55.890;37.664;2022-12-29T11:09:39;99277.81;;;-2.17;95.07
61900;BME280;47853;55.890;37.664;2022-12-29T11:15:14;99286.50;;;-2.02;95.71
61900;BME280;47853;55.890;37.664;2022-12-29T11:17:57;99244.78;;;-2.62;94.91
61900;BME280;47853;55.890;37.664;2022-12-29T11:20:33;99281.91;;;-2.13;95.37
61900;BME280;47853;55.890;37.664;2022-12-29T11:31:46;99237.44;;;-1.65;92.51
61900;BME280;47853;55.890;37.664;2022-12-29T11:34:31;99264.28;;;-0.79;91.05
61900;BME280;47853;55.890;37.664;2022-12-29T11:42:57;99203.84;;;-1.55;88.50
61900;BME280;47853;55.890;37.664;2022-12-29T11:45:33;99170.19;;;-2.01;88.15
61900;BME280;47853;55.890;37.664;2022-12-29T11:48:07;99176.91;;;-1.97;88.65
61900;BME280;47853;55.890;37.664;2022-12-29T11:50:41;99193.19;;;-2.84;90.57
61900;BME280;47853;55.890;37.664;2022-12-29T11:53:19;99293.63;;;-2.67;93.96
61900;BME280;47853;55.890;37.664;2022-12-29T11:56:06;99288.63;;;-2.55;95.67
61900;BME280;47853;55.890;37.664;2022-12-29T11:58:37;99245.88;;;-2.35;96.89
61900;BME280;47853;55.890;37.664;2022-12-29T12:01:31;99224.09;;;-2.18;95.88
61900;BME280;47853;55.890;37.664;2022-12-29T12:06:57;99213.72;;;-1.89;93.96
61900;BME280;47853;55.890;37.664;2022-12-29T12:09:38;99205.91;;;-1.89;92.22
61900;BME280;47853;55.890;37.664;2022-12-29T12:12:09;99298.47;;;-1.25;91.28
61900;BME280;47853;55.890;37.664;2022-12-29T12:14:42;99309.75;;;-0.97;90.21
61900;BME280;47853;55.890;37.664;2022-12-29T12:17:31;99307.13;;;-1.39;88.94
61900;BME280;47853;55.890;37.664;2022-12-29T12:20:22;99296.09;;;-1.15;89.36
61900;BME280;47853;55.890;37.664;2022-12-29T12:25:37;99229.34;;;-1.89;91.70
61900;BME280;47853;55.890;37.664;2022-12-29T12:31:45;99206.94;;;-1.21;89.00
61900;BME280;47853;55.890;37.664;2022-12-29T12:34:42;99309.16;;;-0.74;88.45
61900;BME280;47853;55.890;37.664;2022-12-29T12:51:29;99281.13;;;-0.30;82.68
61900;BME280;47853;55.890;37.664;2022-12-29T13:05:55;99194.94;;;-0.68;85.50
61900;BME280;47853;55.890;37.664;2022-12-29T13:08:53;99306.28;;;0.12;85.73
61900;BME280;47853;55.890;37.664;2022-12-29T13:23:17;99297.53;;;0.52;80.93
61900;BME280;47853;55.890;37.664;2022-12-29T13:42:13;99209.41;;;-1.32;83.59
61900;BME280;47853;55.890;37.664;2022-12-29T13:44:48;99267.81;;;-1.22;85.38
61900;BME280;47853;55.890;37.664;2022-12-29T13:49:51;99292.81;;;-0.90;86.01
61900;BME280;47853;55.890;37.664;2022-12-29T13:52:27;99290.81;;;-0.72;86.00
61900;BME280;47853;55.890;37.664;2022-12-29T13:55:07;99301.44;;;-1.17;86.25
61900;BME280;47853;55.890;37.664;2022-12-29T13:58:17;99305.16;;;-1.21;88.30
61900;BME280;47853;55.890;37.664;2022-12-29T14:00:53;99294.50;;;-1.04;88.57
61900;BME280;47853;55.890;37.664;2022-12-29T14:06:22;99277.06;;;-1.45;88.59
61900;BME280;47853;55.890;37.664;2022-12-29T14:08:48;99300.50;;;-1.16;88.87
61900;BME280;47853;55.890;37.664;2022-12-29T14:11:21;99275.19;;;-1.43;89.22
61900;BME280;47853;55.890;37.664;2022-12-29T14:13:47;99286.53;;;-1.15;89.90
61900;BME280;47853;55.890;37.664;2022-12-29T14:16:48;99280.84;;;-1.07;88.88
61900;BME280;47853;55.890;37.664;2022-12-29T14:19:18;99288.44;;;-0.90;88.04
61900;BME280;47853;55.890;37.664;2022-12-29T14:22:00;99302.81;;;-1.26;88.41
61900;BME280;47853;55.890;37.664;2022-12-29T14:24:39;99300.56;;;-0.61;88.58
61900;BME280;47853;55.890;37.664;2022-12-29T14:42:41;99299.75;;;-0.76;85.49
61900;BME280;47853;55.890;37.664;2022-12-29T14:45:26;99291.56;;;-0.42;85.78
61900;BME280;47853;55.890;37.664;2022-12-29T14:47:55;99284.09;;;-0.49;84.67
61900;BME280;47853;55.890;37.664;2022-12-29T14:50:22;99301.03;;;-0.69;84.89
61900;BME280;47853;55.890;37.664;2022-12-29T14:52:54;99304.44;;;-0.81;85.17
61900;BME280;47853;55.890;37.664;2022-12-29T14:55:36;99309.38;;;-0.91;86.78
61900;BME280;47853;55.890;37.664;2022-12-29T14:58:05;99306.22;;;-0.96;86.80
61900;BME280;47853;55.890;37.664;2022-12-29T15:00:34;99304.53;;;-0.83;87.58
61900;BME280;47853;55.890;37.664;2022-12-29T15:03:22;99293.81;;;-0.51;86.84
61900;BME280;47853;55.890;37.664;2022-12-29T15:08:33;99301.22;;;-0.04;83.48
61900;BME280;47853;55.890;37.664;2022-12-29T15:11:06;99302.13;;;0.09;83.02
61900;BME280;47853;55.890;37.664;2022-12-29T15:13:37;99289.88;;;0.23;82.09
61900;BME280;47853;55.890;37.664;2022-12-29T15:16:04;99291.06;;;0.45;81.58
61900;BME280;47853;55.890;37.664;2022-12-29T15:18:31;99289.13;;;-0.05;81.15
61900;BME280;47853;55.890;37.664;2022-12-29T15:21:02;99299.16;;;-0.12;82.04
61900;BME280;47853;55.890;37.664;2022-12-29T15:23:33;99282.59;;;-0.38;83.13
61900;BME280;47853;55.890;37.664;2022-12-29T15:26:02;99276.19;;;-0.07;82.86
61900;BME280;47853;55.890;37.664;2022-12-29T15:28:40;99281.09;;;0.24;82.26
61900;BME280;47853;55.890;37.664;2022-12-29T15:31:15;99293.91;;;-0.25;81.82
61900;BME280;47853;55.890;37.664;2022-12-29T15:33:43;99293.91;;;-0.25;83.04
61900;BME280;47853;55.890;37.664;2022-12-29T15:36:20;99290.78;;;-0.45;83.09
61900;BME280;47853;55.890;37.664;2022-12-29T15:44:44;99224.88;;;-0.74;83.98
61900;BME280;47853;55.890;37.664;2022-12-29T15:47:42;99279.88;;;-0.37;84.00
61900;BME280;47853;55.890;37.664;2022-12-29T15:52:49;99276.28;;;-0.49;84.09
61900;BME280;47853;55.890;37.664;2022-12-29T15:55:37;99207.53;;;-1.30;85.56
61900;BME280;47853;55.890;37.664;2022-12-29T15:58:18;99197.91;;;-1.15;86.48
61900;BME280;47853;55.890;37.664;2022-12-29T16:00:48;99259.16;;;-0.53;85.69
61900;BME280;47853;55.890;37.664;2022-12-29T16:03:17;99278.28;;;0.01;85.33
61900;BME280;47853;55.890;37.664;2022-12-29T16:05:53;99281.09;;;0.11;84.21
61900;BME280;47853;55.890;37.664;2022-12-29T16:08:30;99279.56;;;-0.32;84.38
61900;BME280;47853;55.890;37.664;2022-12-29T16:10:56;99280.53;;;-0.33;84.16
61900;BME280;47853;55.890;37.664;2022-12-29T16:13:27;99277.53;;;-0.54;84.77
61900;BME280;47853;55.890;37.664;2022-12-29T16:16:09;99283.16;;;-0.20;85.60
61900;BME280;47853;55.890;37.664;2022-12-29T16:18:40;99260.03;;;-0.39;85.46
61900;BME280;47853;55.890;37.664;2022-12-29T16:21:23;99273.84;;;-0.24;85.67
61900;BME280;47853;55.890;37.664;2022-12-29T16:23:51;99273.25;;;-0.55;85.61